createdAt,value
2019-05-20T00:03:34.023Z,19.80
2019-05-20T00:08:38.259Z,20.45
2019-05-20T00:13:42.559Z,20.72
2019-05-20T00:18:53.015Z,20.30
2019-05-20T00:24:03.381Z,20.50
2019-05-20T00:29:13.896Z,20.20
2019-05-20T00:34:17.298Z,24.75
2019-05-20T00:39:25.973Z,22.20
2019-05-20T00:44:33.379Z,23.67
2019-05-20T00:49:40.520Z,27.50
2019-05-20T00:54:44.995Z,24.12
2019-05-20T00:59:49.385Z,23.80
2019-05-20T01:04:53.793Z,23.25
2019-05-20T01:10:02.316Z,24.20
2019-05-20T01:15:19.364Z,21.93
2019-05-20T01:20:23.524Z,28.45
2019-05-20T01:25:31.330Z,20.12
2019-05-20T01:30:39.140Z,24.30
2019-05-20T01:35:43.509Z,21.97
2019-05-20T01:40:48.040Z,21.15
2019-05-20T01:45:56.380Z,22.58
2019-05-20T01:51:00.810Z,21.57
2019-05-20T01:56:09.119Z,22.90
2019-05-20T02:01:15.180Z,22.45
2019-05-20T02:06:19.593Z,22.25
2019-05-20T02:11:42.932Z,26.12
2019-05-20T02:16:47.568Z,24.27
2019-05-20T02:26:58.212Z,24.05
2019-05-20T02:32:02.578Z,23.70
2019-05-20T02:37:09.076Z,24.35
2019-05-20T02:42:14.555Z,23.60
2019-05-20T02:47:18.675Z,25.90
2019-05-20T02:52:28.287Z,25.77
2019-05-20T02:57:33.485Z,23.83
2019-05-20T03:02:37.613Z,26.30
2019-05-20T03:07:41.601Z,30.35
2019-05-20T03:12:46.204Z,26.50
2019-05-20T03:22:53.576Z,26.90
2019-05-20T03:27:57.889Z,30.25
2019-05-20T03:33:04.755Z,29.92
2019-05-20T03:38:11.527Z,32.45
2019-05-20T03:43:18.075Z,34.35
2019-05-20T03:48:22.779Z,32.98
2019-05-20T03:53:28.387Z,34.13
2019-05-20T03:58:33.046Z,31.70
2019-05-20T04:09:05.073Z,29.77
2019-05-20T04:14:12.440Z,32.25
2019-05-20T04:19:16.508Z,32.30
2019-05-20T04:24:28.680Z,36.03
2019-05-20T04:29:32.762Z,35.98
2019-05-20T04:34:36.890Z,33.23
2019-05-20T04:39:41.075Z,31.82
2019-05-20T04:44:45.157Z,31.75
2019-05-20T04:49:49.252Z,31.02
2019-05-20T04:54:53.540Z,30.32
2019-05-20T05:00:00.604Z,30.85
2019-05-20T05:05:05.144Z,29.98
2019-05-20T05:10:10.058Z,30.05
2019-05-20T05:15:14.549Z,30.68
2019-05-20T05:20:18.907Z,31.52
2019-05-20T05:25:23.053Z,30.75
2019-05-20T05:30:27.374Z,38.73
2019-05-20T05:35:31.845Z,36.80
2019-05-20T05:40:35.941Z,42.50
2019-05-20T05:45:40.109Z,47.43
2019-05-20T05:50:44.209Z,42.15
2019-05-20T05:55:48.615Z,37.25
2019-05-20T06:00:53.027Z,38.48
2019-05-20T06:06:11.335Z,40.08
2019-05-20T06:11:03.471Z,46.30
2019-05-20T06:16:07.633Z,44.67
2019-05-20T06:21:12.100Z,41.58
2019-05-20T06:26:18.007Z,40.12
2019-05-20T06:31:23.330Z,42.62
2019-05-20T06:36:27.513Z,38.70
2019-05-20T06:41:31.977Z,39.90
2019-05-20T06:46:35.990Z,44.25
2019-05-20T06:51:44.232Z,47.30
2019-05-20T06:56:48.704Z,49.63
2019-05-20T07:06:56.308Z,46.60
2019-05-20T07:12:00.456Z,48.83
2019-05-20T07:17:08.086Z,50.05
2019-05-20T07:22:12.769Z,43.80
2019-05-20T07:32:22.439Z,41.50
2019-05-20T07:37:26.617Z,45.67
2019-05-20T07:42:33.741Z,41.20
2019-05-20T07:47:38.055Z,41.33
2019-05-20T07:52:46.549Z,43.63
2019-05-20T07:57:53.467Z,41.90
2019-05-20T08:02:58.227Z,44.55
2019-05-20T08:08:06.521Z,35.90
2019-05-20T08:13:14.904Z,48.17
2019-05-20T08:18:24.640Z,40.48
2019-05-20T08:23:31.459Z,47.08
2019-05-20T08:28:36.672Z,37.80
2019-05-20T08:33:41.992Z,46.98
2019-05-20T08:38:48.888Z,44.42
2019-05-20T08:43:57.044Z,52.88
2019-05-20T08:49:04.446Z,50.95
2019-05-20T08:54:08.585Z,56.77
2019-05-20T08:59:16.589Z,52.23
2019-05-20T09:04:20.720Z,58.55
2019-05-20T09:09:25.295Z,56.00
2019-05-20T09:19:35.013Z,59.30
2019-05-20T09:24:42.170Z,58.45
2019-05-20T09:29:46.270Z,66.42
2019-05-20T09:34:50.770Z,63.08
2019-05-20T09:39:57.410Z,60.52
2019-05-20T09:45:07.479Z,62.98
2019-05-20T09:50:13.679Z,59.63
2019-05-20T09:55:22.803Z,66.00
2019-05-20T10:00:29.179Z,59.98
2019-05-20T10:05:37.179Z,65.60
2019-05-20T10:10:41.774Z,57.65
2019-05-20T10:15:48.508Z,63.10
2019-05-20T10:20:52.651Z,64.47
2019-05-20T10:26:02.160Z,61.77
2019-05-20T10:31:10.850Z,56.42
2019-05-20T10:36:16.297Z,62.62
2019-05-20T10:41:24.291Z,65.95
2019-05-20T10:46:28.512Z,65.12
2019-05-20T10:51:32.694Z,57.35
2019-05-20T10:56:37.167Z,67.50
2019-05-20T11:01:42.652Z,67.97
2019-05-20T11:06:52.221Z,68.42
2019-05-20T11:11:56.147Z,60.15
2019-05-20T11:17:05.692Z,68.40
2019-05-20T11:22:11.158Z,70.03
2019-05-20T11:27:23.035Z,65.10
2019-05-20T11:32:30.974Z,72.25
2019-05-20T11:37:38.003Z,69.00
2019-05-20T11:42:45.818Z,73.65
2019-05-20T11:47:50.031Z,64.75
2019-05-20T11:52:57.013Z,66.05
2019-05-20T11:58:15.401Z,71.65
2019-05-20T12:03:07.770Z,65.83
2019-05-20T12:08:12.087Z,70.60
2019-05-20T12:13:16.224Z,69.25
2019-05-20T12:18:20.504Z,68.42
2019-05-20T12:23:24.933Z,62.05
2019-05-20T12:28:30.085Z,61.73
2019-05-20T12:33:34.642Z,67.17
2019-05-20T12:38:41.264Z,63.68
2019-05-20T12:43:45.522Z,68.10
2019-05-20T12:48:50.356Z,64.50
2019-05-20T12:53:54.680Z,65.87
2019-05-20T12:58:59.112Z,72.17
2019-05-20T13:04:03.164Z,63.65
2019-05-20T13:09:10.032Z,64.60
2019-05-20T13:14:13.838Z,64.27
2019-05-20T13:19:23.051Z,62.90
2019-05-20T13:24:27.069Z,72.32
2019-05-20T13:29:31.453Z,71.85
2019-05-20T13:34:38.901Z,75.20
2019-05-20T13:39:44.766Z,70.42
2019-05-20T13:44:56.175Z,65.83
2019-05-20T13:50:00.395Z,60.38
2019-05-20T13:55:05.115Z,57.58
2019-05-20T14:00:09.856Z,58.02
2019-05-20T14:05:14.546Z,61.13
2019-05-20T14:15:26.322Z,60.60
2019-05-20T14:20:30.731Z,63.08
2019-05-20T14:25:34.932Z,64.20
2019-05-20T14:30:39.824Z,95.87
2019-05-20T14:35:44.461Z,69.00
2019-05-20T14:45:51.748Z,62.45
2019-05-20T14:50:56.326Z,69.07
2019-05-20T14:56:01.216Z,74.65
2019-05-20T15:01:05.646Z,73.05
2019-05-20T15:06:09.917Z,67.58
2019-05-20T15:11:14.293Z,68.83
2019-05-20T15:16:18.509Z,66.97
2019-05-20T15:21:29.558Z,67.22
2019-05-20T15:26:38.679Z,65.45
2019-05-20T15:31:42.702Z,69.03
2019-05-20T15:36:47.085Z,58.78
2019-05-20T15:41:51.376Z,61.92
2019-05-20T15:46:58.073Z,60.52
2019-05-20T15:52:06.621Z,62.67
2019-05-20T15:57:12.252Z,64.90
2019-05-20T16:02:16.512Z,59.85
2019-05-20T16:07:23.510Z,58.98
2019-05-20T16:12:27.655Z,59.75
2019-05-20T16:17:32.294Z,52.43
2019-05-20T16:22:37.288Z,51.63
2019-05-20T16:27:46.376Z,51.37
2019-05-20T16:32:53.618Z,59.08
2019-05-20T16:37:58.017Z,55.15
2019-05-20T16:43:02.361Z,51.13
2019-05-20T16:48:13.771Z,56.05
2019-05-20T16:53:20.504Z,55.38
2019-05-20T16:58:24.546Z,51.02
2019-05-20T17:03:28.622Z,51.95
2019-05-20T17:08:34.043Z,47.33
2019-05-20T17:13:38.426Z,45.90
2019-05-20T17:18:42.615Z,51.23
2019-05-20T17:23:46.799Z,79.72
2019-05-20T17:28:50.932Z,53.33
2019-05-20T17:33:55.083Z,53.28
2019-05-20T17:38:59.722Z,51.68
2019-05-20T17:44:03.830Z,55.52
2019-05-20T17:49:09.864Z,52.55
2019-05-20T17:54:14.003Z,47.03
2019-05-20T17:59:22.597Z,51.68
2019-05-20T18:04:27.157Z,30.52
2019-05-20T18:14:39.096Z,20.00
2019-05-20T18:19:48.647Z,22.40
2019-05-20T18:24:52.906Z,23.83
2019-05-20T18:30:06.366Z,23.40
2019-05-20T18:35:16.610Z,28.23
2019-05-20T18:40:24.288Z,29.30
2019-05-20T18:51:23.049Z,42.45
2019-05-20T18:56:27.765Z,48.02
2019-05-20T19:01:55.775Z,44.42
2019-05-20T19:06:49.450Z,41.95
2019-05-20T19:11:53.995Z,40.78
2019-05-20T19:17:04.735Z,47.17
2019-05-20T19:22:14.410Z,57.88
2019-05-20T19:27:18.648Z,62.00
2019-05-20T19:32:23.566Z,57.95
2019-05-20T19:37:27.766Z,65.05
2019-05-20T19:42:33.125Z,57.95
2019-05-20T19:47:41.706Z,68.28
2019-05-20T19:52:48.517Z,64.67
2019-05-20T19:57:56.022Z,65.90
2019-05-20T20:03:00.186Z,65.85
2019-05-20T20:13:43.316Z,64.27
2019-05-20T20:18:49.244Z,72.42
2019-05-20T20:23:53.550Z,68.87
2019-05-20T20:28:57.856Z,69.40
2019-05-20T20:34:02.357Z,26.00
2019-05-20T20:44:33.319Z,67.50
2019-05-20T20:49:38.707Z,63.63
2019-05-20T20:54:43.075Z,60.55
2019-05-20T20:59:50.284Z,63.38
2019-05-20T21:04:55.121Z,65.28
2019-05-20T21:15:05.201Z,66.42
2019-05-20T21:20:13.780Z,66.10
2019-05-20T21:25:20.904Z,65.85
2019-05-20T21:30:31.951Z,62.93
2019-05-20T21:35:36.648Z,62.78
2019-05-20T21:40:41.306Z,56.00
2019-05-20T21:51:33.408Z,53.73
2019-05-20T21:56:39.153Z,49.88
2019-05-20T22:01:43.614Z,55.30
2019-05-20T22:06:55.126Z,50.28
2019-05-20T22:12:02.641Z,54.00
2019-05-20T22:17:07.100Z,55.12
2019-05-20T22:22:32.900Z,54.60
2019-05-20T22:27:38.660Z,50.15
2019-05-20T22:32:42.885Z,50.73
2019-05-20T22:37:48.093Z,48.02
2019-05-20T22:42:56.419Z,31.62
2019-05-20T22:48:00.669Z,41.53
2019-05-20T22:53:08.283Z,40.90
2019-05-20T22:58:12.375Z,38.48
2019-05-20T23:03:20.604Z,36.65
2019-05-20T23:08:31.815Z,43.40
2019-05-20T23:13:41.830Z,43.80
2019-05-20T23:18:50.331Z,42.33
2019-05-20T23:23:57.341Z,40.30
2019-05-20T23:29:06.435Z,39.08
2019-05-20T23:34:13.113Z,37.78
2019-05-20T23:39:17.037Z,45.10
2019-05-20T23:44:21.199Z,50.70
2019-05-20T23:49:31.943Z,43.65
2019-05-20T23:54:37.591Z,43.90
2019-05-20T23:59:42.050Z,48.90
